KACK

Nantucket Memorial Airport

Nantucket, Massachusetts, USA
KACK 151127Z 1512/1612 22008KT P6SM VCSH BKN050 FM151300 22008KT 4SM SHRA BKN040 FM151500 25010KT P6SM BKN090 FM151800 24010KT P6SM SCT250
Issued Valid From Valid To
Aug-15 @ 11:27 UTC
(an hour ago)
Aug-15 @ 12:00 UTC
(42 minutes ago)
Aug-16 @ 12:00 UTC
(in 23 hours)
Aug-15 @ 12:00 to Aug-15 @ 13:00
KACK 151127Z 1512/1612 22008KT P6SM VCSH BKN050
Wind Visibility Clouds
220° at 8 knots Greater than 6 miles
  • Broken at 5,000' AGL
From Aug-15 @ 13:00 to Aug-15 @ 15:00
FM151300 22008KT 4SM SHRA BKN040
Wind Visibility Clouds Conditions
220° at 8 knots 4 miles
  • Broken at 4,000' AGL
  • Rain
From Aug-15 @ 15:00 to Aug-15 @ 18:00
FM151500 25010KT P6SM BKN090
Wind Visibility Clouds
250° at 10 knots Greater than 6 miles
  • Broken at 9,000' AGL
From Aug-15 @ 18:00 to Aug-16 @ 12:00
FM151800 24010KT P6SM SCT250
Wind Visibility Clouds
240° at 10 knots Greater than 6 miles
  • Scattered at 25,000' AGL
KACK 151127Z 1512/1612 22008KT P6SM VCSH BKN050 FM151300 22008KT 4SM SHRA BKN040 FM151500 25010KT P6SM BKN090 FM151800 24010KT P6SM SCT250
Issued Aug-15 @ 11:27 UTC
(an hour ago)
Valid From Aug-15 @ 12:00 UTC
(42 minutes ago)
Valid To Aug-16 @ 12:00 UTC
(in 23 hours)
Aug-15 @ 12:00 - Aug-15 @ 13:00
Wind Visibility
220° at 8 knots Greater than 6 miles
Clouds
  • Broken at 5,000' AGL
From Aug-15 @ 13:00 - Aug-15 @ 15:00
Wind Visibility
220° at 8 knots 4 miles
Clouds
  • Broken at 4,000' AGL
Conditions
  • Rain
From Aug-15 @ 15:00 - Aug-15 @ 18:00
Wind Visibility
250° at 10 knots Greater than 6 miles
Clouds
  • Broken at 9,000' AGL
From Aug-15 @ 18:00 - Aug-16 @ 12:00
Wind Visibility
240° at 10 knots Greater than 6 miles
Clouds
  • Scattered at 25,000' AGL